Time;durP1;ratioP1;P1;durP2;ratioP2;P2;SDS_P1;SDS_P2;PMS_P1;PMS_P2;Temp;Humidity;BMP_temperature;BMP_pressure;BME280_temperature;BME280_humidity;BME280_pressure;Samples;Min_cycle;Max_cycle;Signal;HPM_P1;HPM_P2
2021/11/21 00:00:40;;;;;;;39.83;26.33;;;;;;;7.22;90.88;100433.94;5027845;28;20683;-52
2021/11/21 00:03:07;;;;;;;37.70;26.45;;;;;;;7.22;91.00;100432.19;5029497;28;20084;-53
2021/11/21 00:05:34;;;;;;;38.15;25.45;;;;;;;7.24;91.07;100435.59;5039908;28;20528;-52
2021/11/21 00:08:00;;;;;;;38.38;24.55;;;;;;;7.31;90.39;100421.31;5032029;28;20067;-54
2021/11/21 00:10:33;;;;;;;35.33;22.75;;;;;;;7.31;90.05;100426.59;5027838;28;20038;-53
2021/11/21 00:13:00;;;;;;;39.53;26.25;;;;;;;7.25;89.92;100410.97;5032825;28;20057;-52
2021/11/21 00:15:27;;;;;;;41.22;25.27;;;;;;;7.24;90.68;100408.44;5034425;28;20051;-51
2021/11/21 00:17:54;;;;;;;38.63;25.25;;;;;;;7.26;90.55;100412.69;5030087;28;20059;-53
2021/11/21 00:20:20;;;;;;;38.65;24.52;;;;;;;7.27;90.35;100411.78;5032466;28;20041;-53
2021/11/21 00:22:47;;;;;;;40.78;26.70;;;;;;;7.23;90.60;100407.56;5036794;28;20045;-54
2021/11/21 00:25:13;;;;;;;42.97;26.77;;;;;;;7.23;91.29;100407.56;5028479;28;20064;-53
2021/11/21 00:27:40;;;;;;;39.05;24.95;;;;;;;7.23;90.95;100399.66;5035791;28;20037;-52
2021/11/21 00:30:07;;;;;;;40.88;25.30;;;;;;;7.24;90.78;100390.81;5025397;28;20041;-52
2021/11/21 00:32:33;;;;;;;44.72;25.67;;;;;;;7.23;90.80;100386.50;5032812;28;20060;-54
2021/11/21 00:35:00;;;;;;;42.72;25.52;;;;;;;7.25;91.47;100383.78;5030507;28;20049;-53
2021/11/21 00:37:28;;;;;;;43.28;25.88;;;;;;;7.27;91.13;100389.88;5035182;28;20060;-55
2021/11/21 00:39:56;;;;;;;40.95;24.40;;;;;;;7.21;90.99;100387.44;5031626;28;20041;-52
2021/11/21 00:42:23;;;;;;;50.85;26.95;;;;;;;7.21;91.50;100388.31;5026802;28;20051;-51
2021/11/21 00:44:50;;;;;;;40.22;23.95;;;;;;;7.24;91.24;100385.56;5032129;28;20071;-51
2021/11/21 00:47:17;;;;;;;43.78;26.15;;;;;;;7.20;91.20;100383.97;5034170;28;20045;-53
2021/11/21 00:49:44;;;;;;;46.72;26.80;;;;;;;7.22;91.72;100386.53;5025018;28;20041;-52
2021/11/21 00:52:11;;;;;;;45.50;26.60;;;;;;;7.13;91.58;100382.44;5029730;28;20057;-54
2021/11/21 00:57:14;;;;;;;45.10;25.48;;;;;;;7.02;92.12;100363.50;5034327;28;20045;-52
2021/11/21 00:59:41;;;;;;;48.75;26.30;;;;;;;7.14;92.39;100378.88;5028590;28;20623;-54
2021/11/21 01:02:11;;;;;;;45.40;24.75;;;;;;;7.10;92.04;100385.16;5033102;28;20561;-52
2021/11/21 01:04:41;;;;;;;44.20;25.63;;;;;;;7.06;92.34;100377.44;5016818;28;20562;-52
2021/11/21 01:07:11;;;;;;;46.45;25.67;;;;;;;7.04;92.93;100380.97;5029959;28;20049;-52
2021/11/21 01:09:39;;;;;;;51.03;27.52;;;;;;;7.04;93.19;100380.09;5022577;28;21058;-54
2021/11/21 01:12:08;;;;;;;46.30;26.15;;;;;;;7.00;93.21;100374.06;5031286;28;20049;-53
2021/11/21 01:14:36;;;;;;;52.13;26.73;;;;;;;6.96;93.57;100367.19;5033486;28;20493;-52
2021/11/21 01:17:03;;;;;;;47.63;26.23;;;;;;;6.92;94.28;100356.81;5028580;28;20041;-52
2021/11/21 01:19:29;;;;;;;49.00;26.80;;;;;;;6.88;94.53;100356.06;5025341;28;20048;-52
2021/11/21 01:21:56;;;;;;;50.47;25.80;;;;;;;6.88;95.31;100348.16;5027765;28;20077;-53
2021/11/21 01:24:23;;;;;;;49.67;25.98;;;;;;;6.88;96.19;100348.16;5034456;28;20141;-53
2021/11/21 01:26:50;;;;;;;48.08;25.83;;;;;;;6.90;96.18;100350.75;5028447;28;20046;-52
2021/11/21 01:29:16;;;;;;;53.65;27.33;;;;;;;6.75;96.82;100341.56;5031306;28;20043;-54
2021/11/21 01:31:47;;;;;;;53.55;26.45;;;;;;;6.82;97.60;100363.28;5036014;28;20506;-53
2021/11/21 01:34:16;;;;;;;54.58;27.42;;;;;;;6.65;97.81;100333.09;5028223;28;20076;-53
2021/11/21 01:36:43;;;;;;;49.97;25.88;;;;;;;6.76;98.08;100345.94;5040423;28;20041;-51
2021/11/21 01:39:10;;;;;;;51.15;26.45;;;;;;;6.75;98.85;100345.97;5027467;28;20058;-52
2021/11/21 01:41:36;;;;;;;55.88;28.27;;;;;;;6.72;99.39;100336.41;5032377;28;20140;-55
2021/11/21 01:44:04;;;;;;;54.35;28.33;;;;;;;6.68;99.99;100325.09;5037019;28;20050;-54
2021/11/21 01:46:37;;;;;;;58.25;27.85;;;;;;;6.63;100.00;100321.75;5031502;28;20055;-54
2021/11/21 01:49:05;;;;;;;55.08;27.27;;;;;;;6.54;100.00;100308.91;5026296;28;20056;-51
2021/11/21 01:51:32;;;;;;;50.53;26.45;;;;;;;6.61;100.00;100315.66;5023771;28;20041;-52
2021/11/21 01:53:58;;;;;;;53.72;26.27;;;;;;;6.61;100.00;100305.16;5030830;28;20497;-51
2021/11/21 01:56:26;;;;;;;48.83;26.58;;;;;;;6.63;100.00;100305.97;5031658;28;21862;-51
2021/11/21 01:58:54;;;;;;;51.83;26.52;;;;;;;6.56;100.00;100303.59;5027915;28;20053;-54
2021/11/21 02:01:22;;;;;;;53.70;26.92;;;;;;;6.61;100.00;100312.22;5026988;28;20059;-52
2021/11/21 02:03:50;;;;;;;54.40;26.65;;;;;;;6.58;100.00;100304.41;5029036;28;20045;-52
2021/11/21 02:06:17;;;;;;;54.22;26.70;;;;;;;6.55;100.00;100297.47;5036836;28;22232;-52
2021/11/21 02:08:44;;;;;;;53.05;26.33;;;;;;;6.53;100.00;100288.75;5025463;28;20495;-54
2021/11/21 02:11:11;;;;;;;53.50;28.33;;;;;;;6.56;100.00;100285.19;5028351;28;20045;-53
2021/11/21 02:13:37;;;;;;;59.65;29.70;;;;;;;6.53;100.00;100280.88;5032114;28;20140;-52
2021/11/21 02:16:04;;;;;;;54.95;27.55;;;;;;;6.46;100.00;100279.34;5012457;28;20510;-51
2021/11/21 02:18:31;;;;;;;50.65;25.52;;;;;;;6.47;100.00;100274.94;5026721;28;20056;-52
2021/11/21 02:20:58;;;;;;;44.22;25.23;;;;;;;6.36;100.00;100259.50;5028777;28;20052;-53
2021/11/21 02:23:26;;;;;;;46.90;24.60;;;;;;;6.41;100.00;100268.13;5033063;28;20053;-54
2021/11/21 02:25:52;;;;;;;46.63;23.98;;;;;;;6.39;100.00;100269.06;5035607;28;20049;-53
2021/11/21 02:28:19;;;;;;;46.65;24.02;;;;;;;6.38;100.00;100265.59;5031291;28;20056;-53
2021/11/21 02:30:46;;;;;;;43.65;23.00;;;;;;;6.40;100.00;100258.50;5029485;28;20132;-51
2021/11/21 02:33:17;;;;;;;42.47;22.42;;;;;;;6.39;100.00;100264.69;5034406;28;20083;-52
2021/11/21 02:35:46;;;;;;;47.35;24.27;;;;;;;6.38;100.00;100262.94;5030310;28;20052;-51
2021/11/21 02:38:15;;;;;;;43.55;23.35;;;;;;;6.36;100.00;100251.63;5036745;28;20059;-54
2021/11/21 02:40:42;;;;;;;44.65;24.35;;;;;;;6.39;100.00;100245.41;5025504;28;20057;-57
2021/11/21 02:43:08;;;;;;;46.97;24.27;;;;;;;6.37;100.00;100234.94;5031969;28;20060;-54
2021/11/21 02:45:35;;;;;;;47.72;25.17;;;;;;;6.34;100.00;100229.75;5037534;28;20520;-53
2021/11/21 02:48:02;;;;;;;47.53;25.38;;;;;;;6.39;100.00;100234.88;5028053;28;20046;-53
2021/11/21 02:50:29;;;;;;;45.03;23.38;;;;;;;6.37;100.00;100227.03;5023286;28;20187;-53
2021/11/21 02:52:58;;;;;;;39.92;21.95;;;;;;;6.36;100.00;100227.94;5040315;28;20777;-52
2021/11/21 02:55:29;;;;;;;45.63;23.77;;;;;;;6.36;100.00;100230.56;5038362;28;20069;-53
2021/11/21 02:57:57;;;;;;;41.05;21.70;;;;;;;6.34;100.00;100220.09;5037410;28;20043;-53
2021/11/21 03:00:24;;;;;;;39.38;21.90;;;;;;;6.29;100.00;100216.78;5027191;28;20049;-53
2021/11/21 03:02:50;;;;;;;40.13;22.67;;;;;;;6.28;100.00;100222.94;5029649;28;20045;-54
2021/11/21 03:05:19;;;;;;;37.97;20.00;;;;;;;6.24;100.00;100220.47;5039441;28;20041;-52
2021/11/21 03:07:47;;;;;;;34.92;20.13;;;;;;;6.22;100.00;100217.00;5039344;28;20174;-54
2021/11/21 03:10:18;;;;;;;35.75;20.08;;;;;;;6.19;100.00;100217.09;5013724;28;20053;-54
2021/11/21 03:12:56;;;;;;;37.35;19.70;;;;;;;6.15;100.00;100210.22;5030487;28;20119;-53
2021/11/21 03:15:24;;;;;;;40.75;22.35;;;;;;;6.16;100.00;100207.53;5036080;28;20053;-54
2021/11/21 03:17:51;;;;;;;41.05;22.33;;;;;;;6.13;100.00;100202.41;5032182;28;20049;-53
2021/11/21 03:20:22;;;;;;;40.17;21.25;;;;;;;6.19;100.00;100201.34;5033796;28;20045;-52
2021/11/21 03:22:48;;;;;;;37.45;19.95;;;;;;;6.17;100.00;100197.88;5035669;28;20045;-57
2021/11/21 03:25:15;;;;;;;34.50;19.52;;;;;;;6.17;100.00;100192.63;5034267;28;20062;-53
2021/11/21 03:27:42;;;;;;;34.33;18.20;;;;;;;6.15;100.00;100186.56;5039016;28;20045;-52
2021/11/21 03:30:15;;;;;;;37.47;19.60;;;;;;;6.14;100.00;100190.13;5032326;28;20081;-53
2021/11/21 03:32:43;;;;;;;35.50;18.92;;;;;;;6.19;100.00;100177.66;5036802;28;20059;-51
2021/11/21 03:35:10;;;;;;;37.63;19.85;;;;;;;6.17;100.00;100180.34;5031436;28;20049;-53
2021/11/21 03:37:38;;;;;;;34.55;18.23;;;;;;;6.16;100.00;100176.00;5038211;28;20074;-54
2021/11/21 03:40:08;;;;;;;40.00;21.17;;;;;;;6.19;100.00;100177.66;5032916;28;20083;-54
2021/11/21 03:42:34;;;;;;;38.53;20.20;;;;;;;6.18;100.00;100171.56;5030795;28;20151;-54
2021/11/21 03:45:01;;;;;;;34.80;19.63;;;;;;;6.19;100.00;100173.28;5031189;28;20046;-53
2021/11/21 03:47:27;;;;;;;38.13;19.10;;;;;;;6.10;100.00;100151.69;5033710;28;20087;-52
2021/11/21 03:49:54;;;;;;;35.13;18.65;;;;;;;6.19;100.00;100165.38;5031620;28;20045;-53
2021/11/21 03:52:20;;;;;;;34.15;19.58;;;;;;;6.19;100.00;100160.13;5029877;28;20078;-54
2021/11/21 03:54:47;;;;;;;36.42;19.50;;;;;;;6.22;100.00;100161.78;5036719;28;20056;-53
2021/11/21 03:57:14;;;;;;;38.17;19.83;;;;;;;6.19;100.00;100167.16;5030093;28;20049;-52
2021/11/21 03:59:40;;;;;;;34.22;18.70;;;;;;;6.17;100.00;100159.31;5029897;28;20045;-53
2021/11/21 04:02:07;;;;;;;36.58;20.15;;;;;;;6.17;100.00;100158.44;5027612;28;20056;-53
2021/11/21 04:04:34;;;;;;;36.85;18.95;;;;;;;6.20;100.00;100158.34;5033898;28;20072;-52
2021/11/21 04:07:02;;;;;;;36.25;19.15;;;;;;;6.18;100.00;100144.41;5032635;28;20076;-50
2021/11/21 04:09:28;;;;;;;38.40;19.77;;;;;;;6.20;100.00;100148.69;5034662;28;20045;-54
2021/11/21 04:11:55;;;;;;;36.22;20.00;;;;;;;6.20;100.00;100148.69;5031103;28;20101;-53
2021/11/21 04:14:22;;;;;;;33.92;18.75;;;;;;;6.22;100.00;100146.03;5036270;28;20060;-54
2021/11/21 04:16:48;;;;;;;39.03;19.95;;;;;;;6.23;100.00;100145.13;5031404;28;20036;-52
2021/11/21 04:19:15;;;;;;;36.95;19.27;;;;;;;6.27;100.00;100149.38;5027879;28;20045;-54
2021/11/21 04:21:42;;;;;;;36.95;19.52;;;;;;;6.20;100.00;100142.56;5028900;28;20041;-52
2021/11/21 04:24:12;;;;;;;37.25;18.67;;;;;;;6.22;100.00;100146.03;5033311;28;20583;-52
2021/11/21 04:26:42;;;;;;;35.28;19.73;;;;;;;6.19;100.00;100144.34;5032683;28;20076;-55
2021/11/21 04:29:09;;;;;;;28.13;14.68;;;;;;;6.16;100.00;100136.56;5038657;28;20083;-52
2021/11/21 04:31:36;;;;;;;36.78;18.50;;;;;;;6.19;100.00;100130.34;5031931;28;20054;-53
2021/11/21 04:34:03;;;;;;;40.10;19.77;;;;;;;6.18;100.00;100123.38;5029460;28;20495;-52
2021/11/21 04:36:31;;;;;;;37.10;18.98;;;;;;;6.18;100.00;100126.00;5028550;28;20407;-52
2021/11/21 04:38:57;;;;;;;38.50;19.08;;;;;;;6.19;100.00;100131.19;5033224;28;20427;-52
2021/11/21 04:41:24;;;;;;;36.25;18.58;;;;;;;6.29;100.00;100126.53;5035626;28;20045;-53
2021/11/21 04:43:50;;;;;;;36.80;18.65;;;;;;;6.27;100.00;100123.94;5032168;28;20048;-54
2021/11/21 04:46:17;;;;;;;36.35;18.38;;;;;;;6.11;100.00;100099.06;5035211;28;20415;-52
2021/11/21 04:48:44;;;;;;;35.85;18.70;;;;;;;6.24;100.00;100117.91;5030267;28;20047;-54
2021/11/21 04:51:11;;;;;;;35.42;18.80;;;;;;;6.24;100.00;100110.03;5037616;28;20513;-54
2021/11/21 04:53:37;;;;;;;31.48;16.98;;;;;;;6.22;100.00;100117.09;5032716;28;20064;-54
2021/11/21 04:56:04;;;;;;;33.53;18.35;;;;;;;6.21;100.00;100116.25;5032442;28;20049;-53
2021/11/21 04:58:31;;;;;;;37.13;18.75;;;;;;;6.22;100.00;100117.09;5033306;28;20056;-53
2021/11/21 05:00:58;;;;;;;38.90;19.42;;;;;;;6.19;100.00;100106.69;5030169;28;20059;-54
2021/11/21 05:03:24;;;;;;;36.55;19.10;;;;;;;6.19;100.00;100114.56;5030842;28;20057;-52
2021/11/21 05:05:51;;;;;;;39.63;20.25;;;;;;;6.18;100.00;100103.19;5032761;28;20052;-54
2021/11/21 05:08:17;;;;;;;35.60;19.75;;;;;;;6.16;100.00;100109.41;5025835;28;20062;-55
2021/11/21 05:10:44;;;;;;;34.42;18.58;;;;;;;6.23;100.00;100116.19;5027844;28;20059;-55
2021/11/21 05:13:10;;;;;;;36.92;19.35;;;;;;;6.16;100.00;100088.38;5037104;28;20052;-54
2021/11/21 05:15:37;;;;;;;34.38;17.73;;;;;;;6.26;100.00;100122.22;5029823;28;20051;-53
2021/11/21 05:18:03;;;;;;;34.90;19.27;;;;;;;6.25;100.00;100115.22;5031618;28;20089;-53
2021/11/21 05:20:30;;;;;;;31.98;17.50;;;;;;;6.26;100.00;100109.06;5028296;28;20060;-52
2021/11/21 05:22:57;;;;;;;32.60;17.85;;;;;;;6.26;100.00;100105.56;5031401;28;20160;-54
2021/11/21 05:25:23;;;;;;;32.38;18.75;;;;;;;6.15;100.00;100089.28;5032795;28;20049;-55
2021/11/21 05:27:50;;;;;;;29.83;17.35;;;;;;;6.22;100.00;100107.44;5031199;28;20483;-51
2021/11/21 05:30:20;;;;;;;33.72;18.70;;;;;;;6.23;100.00;100108.31;5026517;28;20053;-54
2021/11/21 05:32:47;;;;;;;32.22;18.27;;;;;;;6.20;100.00;100122.41;5029594;28;20049;-56
2021/11/21 05:35:16;;;;;;;33.10;18.02;;;;;;;6.20;100.00;100121.53;5032890;28;20055;-55
2021/11/21 05:37:43;;;;;;;34.05;18.67;;;;;;;6.19;100.00;100119.81;5030126;28;20049;-52
2021/11/21 05:40:11;;;;;;;37.70;18.70;;;;;;;6.16;100.00;100122.56;5028963;28;20053;-51
2021/11/21 05:42:38;;;;;;;31.13;17.17;;;;;;;6.07;100.00;100100.06;5029940;28;20041;-51
2021/11/21 05:45:06;;;;;;;34.65;18.25;;;;;;;6.15;100.00;100120.81;5037088;28;20052;-52
2021/11/21 05:47:32;;;;;;;37.83;18.27;;;;;;;6.15;100.00;100123.47;5040077;28;20045;-53
2021/11/21 05:49:59;;;;;;;35.10;18.48;;;;;;;6.10;100.00;100121.00;5031916;28;20395;-54
2021/11/21 05:52:26;;;;;;;36.00;17.92;;;;;;;6.12;100.00;100113.06;5029327;28;20051;-52
2021/11/21 05:54:52;;;;;;;41.38;20.05;;;;;;;5.96;100.00;100092.56;5029492;28;20410;-54
2021/11/21 05:57:19;;;;;;;38.97;18.77;;;;;;;6.04;100.00;100109.81;5029872;28;20064;-54
2021/11/21 05:59:45;;;;;;;37.63;19.52;;;;;;;6.07;100.00;100114.97;5033499;28;20069;-54
2021/11/21 06:02:12;;;;;;;40.00;19.90;;;;;;;6.07;100.00;100110.59;5023041;28;20367;-54
2021/11/21 06:04:38;;;;;;;41.17;20.80;;;;;;;6.10;100.00;100109.63;5033806;28;20116;-55
2021/11/21 06:07:07;;;;;;;40.88;19.90;;;;;;;6.10;100.00;100107.00;5011878;28;20056;-51
2021/11/21 06:09:34;;;;;;;41.97;21.13;;;;;;;6.12;100.00;100103.41;5035248;28;20052;-54
2021/11/21 06:12:00;;;;;;;38.33;19.60;;;;;;;6.16;100.00;100104.16;5028349;28;20038;-54
2021/11/21 06:14:29;;;;;;;45.50;20.17;;;;;;;6.15;100.00;100097.16;5027698;28;20068;-52
2021/11/21 06:16:56;;;;;;;39.50;19.88;;;;;;;6.16;100.00;100101.53;5037012;28;20462;-52
2021/11/21 06:19:22;;;;;;;43.90;20.48;;;;;;;6.18;100.00;100099.69;5025521;28;20057;-53
2021/11/21 06:21:49;;;;;;;42.45;19.90;;;;;;;6.22;100.00;100102.19;5026391;28;20041;-52
2021/11/21 06:24:15;;;;;;;41.78;20.45;;;;;;;6.20;100.00;100098.75;5035959;28;20045;-54
2021/11/21 06:26:43;;;;;;;41.22;20.80;;;;;;;6.24;100.00;100095.09;5033451;28;20041;-52
2021/11/21 06:29:09;;;;;;;39.35;19.70;;;;;;;6.28;100.00;100098.50;5035248;28;20060;-53
2021/11/21 06:31:36;;;;;;;40.80;20.73;;;;;;;6.23;100.00;100095.16;5029554;28;20037;-53
2021/11/21 06:34:02;;;;;;;42.50;20.60;;;;;;;6.23;100.00;100089.91;5034973;28;20095;-53
2021/11/21 06:36:30;;;;;;;49.47;21.95;;;;;;;6.18;100.00;100091.81;5034931;28;20045;-53
2021/11/21 06:38:56;;;;;;;41.90;20.17;;;;;;;6.22;100.00;100089.03;5034856;28;20037;-52
2021/11/21 06:41:23;;;;;;;43.03;21.20;;;;;;;6.20;100.00;100084.75;5027294;28;20048;-53
2021/11/21 06:43:49;;;;;;;46.58;21.27;;;;;;;6.20;100.00;100085.59;5035821;28;20065;-51
2021/11/21 06:46:16;;;;;;;38.38;20.05;;;;;;;6.22;100.00;100083.78;5038253;28;20056;-53
2021/11/21 06:48:42;;;;;;;40.50;20.55;;;;;;;6.21;100.00;100091.72;5030600;28;20053;-54
2021/11/21 06:51:09;;;;;;;41.85;20.63;;;;;;;6.21;100.00;100091.72;5030631;28;20060;-53
2021/11/21 06:53:37;;;;;;;38.15;19.67;;;;;;;6.20;100.00;100085.59;5037231;28;20139;-51
2021/11/21 06:56:03;;;;;;;40.90;20.23;;;;;;;6.22;100.00;100093.44;5037599;28;20053;-54
2021/11/21 06:58:30;;;;;;;37.75;20.00;;;;;;;6.28;100.00;100091.47;5030707;28;20047;-52
2021/11/21 07:00:57;;;;;;;41.55;20.08;;;;;;;6.25;100.00;100075.78;5036252;28;20843;-54
2021/11/21 07:03:23;;;;;;;37.33;19.63;;;;;;;6.30;100.00;100075.59;5030345;28;20475;-54
2021/11/21 07:05:50;;;;;;;36.15;19.55;;;;;;;6.30;100.00;100070.34;5033862;28;20045;-51
2021/11/21 07:08:17;;;;;;;36.63;20.17;;;;;;;6.31;100.00;100072.94;5036872;28;20049;-52
2021/11/21 07:10:43;;;;;;;35.90;18.92;;;;;;;6.32;100.00;100066.75;5031979;28;20059;-52
2021/11/21 07:13:10;;;;;;;36.10;18.13;;;;;;;6.37;100.00;100073.63;5031190;28;20060;-52
2021/11/21 07:15:36;;;;;;;34.05;18.73;;;;;;;6.41;100.00;100072.63;5038185;28;20049;-55
2021/11/21 07:18:03;;;;;;;35.05;18.92;;;;;;;6.38;100.00;100068.34;5029822;28;20037;-53
2021/11/21 07:20:29;;;;;;;35.50;18.48;;;;;;;6.37;100.00;100063.97;5036464;28;20051;-52
2021/11/21 07:22:56;;;;;;;32.63;18.15;;;;;;;6.35;100.00;100068.44;5038264;28;20048;-54
2021/11/21 07:25:24;;;;;;;33.90;18.45;;;;;;;6.33;100.00;100065.84;5032250;28;20049;-52
2021/11/21 07:27:51;;;;;;;32.90;17.83;;;;;;;6.39;100.00;100072.69;5031350;28;20041;-52
2021/11/21 07:30:21;;;;;;;30.77;17.55;;;;;;;6.45;100.00;100067.22;5033085;28;20048;-53
2021/11/21 07:32:48;;;;;;;30.75;17.05;;;;;;;6.49;99.74;100068.81;5025921;28;20163;-54
2021/11/21 07:35:17;;;;;;;30.65;16.95;;;;;;;6.47;99.52;100068.00;5032842;28;20101;-54
2021/11/21 07:37:45;;;;;;;31.35;16.88;;;;;;;6.44;99.47;100072.53;5026372;28;20052;-54
2021/11/21 07:40:12;;;;;;;35.00;17.38;;;;;;;6.38;99.67;100070.97;5031544;28;20410;-52
2021/11/21 07:42:40;;;;;;;29.73;16.38;;;;;;;6.24;99.96;100068.81;5025681;28;20037;-54
2021/11/21 07:45:08;;;;;;;27.58;15.65;;;;;;;6.27;100.00;100078.38;5031276;28;20095;-55
2021/11/21 07:47:35;;;;;;;29.15;16.52;;;;;;;6.28;99.86;100073.06;5028612;28;22092;-54
2021/11/21 07:50:03;;;;;;;30.80;16.55;;;;;;;6.26;100.00;100074.03;5025382;28;20050;-55
2021/11/21 07:52:30;;;;;;;31.40;17.35;;;;;;;6.29;100.00;100068.66;5027745;28;20040;-54
2021/11/21 07:54:56;;;;;;;32.50;17.40;;;;;;;6.31;100.00;100067.66;5028628;28;20045;-54
2021/11/21 07:57:22;;;;;;;29.05;15.57;;;;;;;6.34;100.00;100075.47;5030552;28;20434;-52
2021/11/21 07:59:49;;;;;;;28.92;15.95;;;;;;;6.38;99.51;100052.56;5026405;28;20045;-54
2021/11/21 08:02:15;;;;;;;31.70;15.98;;;;;;;6.43;98.69;100060.28;5020709;28;20441;-54
2021/11/21 08:04:42;;;;;;;28.00;15.70;;;;;;;6.35;98.39;100073.69;5027872;28;20045;-54
2021/11/21 08:07:09;;;;;;;30.40;15.70;;;;;;;6.29;98.01;100069.53;5026202;28;20054;-53
2021/11/21 08:09:35;;;;;;;30.30;15.93;;;;;;;6.29;98.65;100073.94;5022144;28;20408;-53
2021/11/21 08:12:02;;;;;;;28.60;15.50;;;;;;;6.32;98.95;100064.13;5019154;28;20655;-53
2021/11/21 08:14:29;;;;;;;28.17;15.27;;;;;;;6.38;99.65;100076.22;5030536;28;20041;-52
2021/11/21 08:16:56;;;;;;;27.92;16.00;;;;;;;6.40;99.23;100076.16;5028321;28;20717;-52
2021/11/21 08:19:22;;;;;;;26.83;15.45;;;;;;;6.46;99.11;100071.53;5031649;28;20119;-53
2021/11/21 08:21:49;;;;;;;26.50;15.70;;;;;;;6.46;98.74;100070.69;5027121;28;20045;-53
2021/11/21 08:24:15;;;;;;;27.58;15.20;;;;;;;6.49;98.60;100063.53;5029919;28;20077;-52
2021/11/21 08:26:42;;;;;;;26.83;14.85;;;;;;;6.50;97.87;100062.63;5024305;28;20505;-54
2021/11/21 08:29:08;;;;;;;28.77;15.52;;;;;;;6.53;97.96;100054.63;5032606;28;20052;-53
2021/11/21 08:31:56;;;;;;;28.63;15.23;;;;;;;6.50;97.14;100065.25;5025244;28;20057;-52
2021/11/21 08:34:23;;;;;;;26.33;14.23;;;;;;;6.50;97.40;100067.88;5031727;28;20048;-53
2021/11/21 08:36:50;;;;;;;26.17;14.57;;;;;;;6.59;96.96;100072.84;5033159;28;20714;-54
2021/11/21 08:39:18;;;;;;;25.70;14.00;;;;;;;6.57;96.72;100081.69;5023802;28;20413;-55
2021/11/21 08:41:44;;;;;;;27.33;14.90;;;;;;;6.54;96.63;100079.16;5020154;28;20068;-52
2021/11/21 08:44:11;;;;;;;26.65;15.38;;;;;;;6.53;96.55;100085.34;5033630;28;20045;-55
2021/11/21 08:46:37;;;;;;;27.40;15.25;;;;;;;6.50;96.69;100072.28;5015598;28;20547;-53
2021/11/21 08:49:04;;;;;;;25.30;15.30;;;;;;;6.44;96.76;100073.38;5027819;28;20047;-53
2021/11/21 08:51:30;;;;;;;25.67;15.13;;;;;;;6.44;96.77;100076.03;5031497;28;20707;-54
2021/11/21 08:53:57;;;;;;;24.15;14.48;;;;;;;6.48;96.77;100076.75;5027010;28;20041;-53
2021/11/21 08:56:23;;;;;;;26.35;14.88;;;;;;;6.54;97.08;100080.03;5029009;28;20037;-52
2021/11/21 08:58:50;;;;;;;23.98;14.55;;;;;;;6.58;96.87;100086.91;5033515;28;20495;-53
2021/11/21 09:01:17;;;;;;;27.98;14.60;;;;;;;6.65;96.30;100090.16;5030317;28;20509;-53
2021/11/21 09:03:44;;;;;;;25.98;14.45;;;;;;;6.60;95.94;100085.09;5026451;28;20065;-52
2021/11/21 09:06:10;;;;;;;25.45;14.63;;;;;;;6.62;96.74;100085.00;5010837;28;20495;-52
2021/11/21 09:08:37;;;;;;;24.85;13.73;;;;;;;6.64;96.76;100080.56;5031196;28;20048;-53
2021/11/21 09:11:05;;;;;;;26.83;15.43;;;;;;;6.68;96.23;100076.91;5034163;28;20052;-55
2021/11/21 09:13:32;;;;;;;24.70;13.82;;;;;;;6.73;95.70;100076.75;5029771;28;20041;-50
2021/11/21 09:15:59;;;;;;;20.30;12.32;;;;;;;6.69;94.35;100079.47;5033634;28;20063;-53
2021/11/21 09:18:26;;;;;;;21.08;12.93;;;;;;;6.66;95.11;100078.72;5028770;28;20469;-53
2021/11/21 09:20:54;;;;;;;23.33;13.73;;;;;;;6.67;94.79;100075.19;5025686;28;20060;-52
2021/11/21 09:23:23;;;;;;;21.60;12.90;;;;;;;6.64;94.73;100088.44;5028321;28;20410;-51
2021/11/21 09:25:52;;;;;;;22.30;13.10;;;;;;;6.71;94.77;100075.94;5031905;28;20041;-51
2021/11/21 09:28:20;;;;;;;20.98;12.50;;;;;;;6.64;94.56;100075.28;5026989;28;20045;-54
2021/11/21 09:30:48;;;;;;;23.35;13.15;;;;;;;6.60;94.80;100069.31;5027311;28;20064;-53
2021/11/21 09:33:14;;;;;;;22.45;12.93;;;;;;;6.48;94.90;100064.44;5021540;28;20052;-52
2021/11/21 09:35:41;;;;;;;21.30;13.05;;;;;;;6.54;95.49;100074.78;5026178;28;20052;-54
2021/11/21 09:38:07;;;;;;;20.65;12.73;;;;;;;6.56;95.61;100072.09;5030989;28;20049;-54
2021/11/21 09:40:34;;;;;;;24.20;12.88;;;;;;;6.52;95.88;100067.84;5028530;28;20045;-53
2021/11/21 09:43:01;;;;;;;20.25;12.63;;;;;;;6.54;96.10;100058.97;5024576;28;20495;-54
2021/11/21 09:45:28;;;;;;;21.65;13.07;;;;;;;6.65;95.61;100066.47;5034670;28;20072;-52
2021/11/21 09:47:57;;;;;;;21.80;12.30;;;;;;;6.72;95.37;100044.31;5028537;28;20495;-55
2021/11/21 09:50:28;;;;;;;23.65;12.60;;;;;;;6.97;93.96;100049.50;5028959;28;20534;-52
2021/11/21 09:52:56;;;;;;;20.77;11.95;;;;;;;7.00;92.79;100052.03;5026304;28;20045;-54
2021/11/21 09:55:22;;;;;;;19.65;11.90;;;;;;;7.01;92.61;100056.38;5033514;28;20045;-52
2021/11/21 09:57:50;;;;;;;20.15;11.52;;;;;;;7.08;91.51;100057.88;5034293;28;20089;-54
2021/11/21 10:00:19;;;;;;;19.95;11.90;;;;;;;7.06;90.75;100051.81;5032934;28;20049;-52
2021/11/21 10:02:48;;;;;;;18.05;11.05;;;;;;;6.97;91.34;100050.38;5026582;28;20053;-52
2021/11/21 10:05:29;;;;;;;18.95;11.20;;;;;;;6.95;91.44;100059.22;5033261;28;20482;-54
2021/11/21 10:08:14;;;;;;;18.60;11.07;;;;;;;6.98;92.06;100049.44;5029408;28;20053;-52
2021/11/21 10:10:49;;;;;;;17.30;10.25;;;;;;;7.00;90.83;100045.00;5032061;28;20049;-52
2021/11/21 10:13:41;;;;;;;20.83;11.40;;;;;;;7.06;90.46;100045.69;5022170;28;20053;-53
2021/11/21 10:16:20;;;;;;;16.73;10.13;;;;;;;7.13;89.75;100032.22;5028027;28;20063;-53
2021/11/21 10:18:59;;;;;;;18.45;11.10;;;;;;;7.27;90.07;100032.53;5006480;28;20134;-53
2021/11/21 10:21:29;;;;;;;18.30;10.95;;;;;;;7.35;88.18;100030.47;5008937;28;20045;-52
2021/11/21 10:24:21;;;;;;;13.52;8.15;;;;;;;7.35;88.39;100019.94;5007140;28;20073;-51
2021/11/21 10:27:02;;;;;;;21.27;11.52;;;;;;;7.31;88.47;100015.69;5005911;28;20048;-53
2021/11/21 10:29:31;;;;;;;16.15;10.75;;;;;;;7.35;88.27;99998.00;5016718;28;20053;-53
2021/11/21 10:31:58;;;;;;;18.27;10.52;;;;;;;7.31;88.16;100001.66;5010479;28;20203;-55
2021/11/21 10:34:26;;;;;;;16.40;10.63;;;;;;;7.36;88.78;100007.63;5010514;28;20073;-51
2021/11/21 10:36:53;;;;;;;17.65;10.95;;;;;;;7.42;87.18;100006.50;5013000;28;20047;-52
2021/11/21 10:39:26;;;;;;;16.08;10.63;;;;;;;7.37;87.50;100010.19;5011266;28;20049;-52
2021/11/21 10:41:56;;;;;;;15.38;10.30;;;;;;;7.36;87.89;100007.63;5007069;28;20072;-52
2021/11/21 10:44:22;;;;;;;18.67;11.47;;;;;;;7.26;88.27;100006.25;5005099;28;20060;-53
2021/11/21 10:46:53;;;;;;;17.85;10.75;;;;;;;7.25;88.89;100005.38;5016409;28;20463;-53
2021/11/21 10:49:31;;;;;;;18.50;10.20;;;;;;;7.28;88.70;100004.41;5019456;28;20411;-54
2021/11/21 10:51:57;;;;;;;17.85;11.05;;;;;;;7.23;88.42;100007.25;5012800;28;20056;-52
2021/11/21 10:54:28;;;;;;;18.67;10.40;;;;;;;7.22;88.85;99999.41;5008037;28;20502;-54
2021/11/21 10:56:57;;;;;;;18.35;10.82;;;;;;;7.24;88.84;100002.84;5011696;28;20049;-54
2021/11/21 10:59:48;;;;;;;18.20;11.50;;;;;;;7.24;89.21;99993.13;5024902;28;20049;-53
2021/11/21 11:02:14;;;;;;;17.10;10.70;;;;;;;7.23;89.16;99999.34;5032271;28;20472;-51
2021/11/21 11:05:14;;;;;;;15.88;10.70;;;;;;;7.13;90.16;99997.97;5032005;28;20045;-53
2021/11/21 11:07:47;;;;;;;18.17;11.10;;;;;;;7.15;91.17;99993.50;5032547;28;20344;-53
2021/11/21 11:10:16;;;;;;;18.42;11.73;;;;;;;7.15;90.71;99993.50;5037165;28;20430;-54
2021/11/21 11:12:54;;;;;;;18.05;11.35;;;;;;;7.23;90.65;99983.56;5029436;28;20057;-53
2021/11/21 11:15:22;;;;;;;19.85;11.77;;;;;;;7.31;89.61;99978.81;5035643;28;20063;-52
2021/11/21 11:17:49;;;;;;;17.55;10.63;;;;;;;7.30;89.17;99974.47;5041036;28;20048;-54
2021/11/21 11:20:17;;;;;;;20.38;10.90;;;;;;;7.33;89.85;99979.63;5031657;28;20053;-53